sensor_id;sensor_type;location;lat;lon;timestamp;P1;durP1;ratioP1;P2;durP2;ratioP2
24084;SDS011;12268;52.110;5.548;2022-09-20T00:00:47;7.50;;;1.77;;
24084;SDS011;12268;52.110;5.548;2022-09-20T00:03:13;6.07;;;2.25;;
24084;SDS011;12268;52.110;5.548;2022-09-20T00:05:41;8.52;;;2.20;;
24084;SDS011;12268;52.110;5.548;2022-09-20T00:08:13;9.27;;;2.05;;
24084;SDS011;12268;52.110;5.548;2022-09-20T00:10:40;6.47;;;2.10;;
24084;SDS011;12268;52.110;5.548;2022-09-20T00:13:08;7.45;;;2.13;;
24084;SDS011;12268;52.110;5.548;2022-09-20T00:15:39;13.50;;;2.38;;
24084;SDS011;12268;52.110;5.548;2022-09-20T00:18:06;9.63;;;2.13;;
24084;SDS011;12268;52.110;5.548;2022-09-20T00:20:32;6.53;;;2.40;;
24084;SDS011;12268;52.110;5.548;2022-09-20T00:22:58;10.38;;;2.25;;
24084;SDS011;12268;52.110;5.548;2022-09-20T00:25:23;6.43;;;2.15;;
24084;SDS011;12268;52.110;5.548;2022-09-20T00:27:49;7.45;;;1.98;;
24084;SDS011;12268;52.110;5.548;2022-09-20T00:30:14;8.82;;;1.90;;
24084;SDS011;12268;52.110;5.548;2022-09-20T00:32:40;6.55;;;2.33;;
24084;SDS011;12268;52.110;5.548;2022-09-20T00:35:06;7.68;;;2.40;;
24084;SDS011;12268;52.110;5.548;2022-09-20T00:37:35;7.20;;;1.98;;
24084;SDS011;12268;52.110;5.548;2022-09-20T00:40:03;9.77;;;2.15;;
24084;SDS011;12268;52.110;5.548;2022-09-20T00:42:30;9.13;;;2.35;;
24084;SDS011;12268;52.110;5.548;2022-09-20T00:44:58;7.10;;;1.92;;
24084;SDS011;12268;52.110;5.548;2022-09-20T00:52:59;3.97;;;2.45;;
24084;SDS011;12268;52.110;5.548;2022-09-20T00:55:29;4.53;;;2.10;;
24084;SDS011;12268;52.110;5.548;2022-09-20T00:57:57;9.05;;;2.45;;
24084;SDS011;12268;52.110;5.548;2022-09-20T01:00:23;7.15;;;2.05;;
24084;SDS011;12268;52.110;5.548;2022-09-20T01:02:51;6.75;;;2.10;;
24084;SDS011;12268;52.110;5.548;2022-09-20T01:05:21;7.00;;;2.00;;
24084;SDS011;12268;52.110;5.548;2022-09-20T01:07:47;5.68;;;2.40;;
24084;SDS011;12268;52.110;5.548;2022-09-20T01:10:15;5.65;;;2.00;;
24084;SDS011;12268;52.110;5.548;2022-09-20T01:12:40;7.57;;;2.10;;
24084;SDS011;12268;52.110;5.548;2022-09-20T01:15:08;8.98;;;2.22;;
24084;SDS011;12268;52.110;5.548;2022-09-20T01:17:35;4.25;;;2.13;;
24084;SDS011;12268;52.110;5.548;2022-09-20T01:25:17;4.95;;;1.85;;
24084;SDS011;12268;52.110;5.548;2022-09-20T01:28:07;5.78;;;2.22;;
24084;SDS011;12268;52.110;5.548;2022-09-20T01:30:40;6.40;;;2.17;;
24084;SDS011;12268;52.110;5.548;2022-09-20T01:33:15;7.85;;;2.67;;
24084;SDS011;12268;52.110;5.548;2022-09-20T01:35:54;8.05;;;2.15;;
24084;SDS011;12268;52.110;5.548;2022-09-20T01:41:27;5.70;;;2.00;;
24084;SDS011;12268;52.110;5.548;2022-09-20T01:47:13;3.95;;;1.70;;
24084;SDS011;12268;52.110;5.548;2022-09-20T01:50:11;5.95;;;1.90;;
24084;SDS011;12268;52.110;5.548;2022-09-20T01:53:14;4.05;;;1.95;;
24084;SDS011;12268;52.110;5.548;2022-09-20T01:55:55;6.82;;;1.80;;
24084;SDS011;12268;52.110;5.548;2022-09-20T02:01:37;13.15;;;2.00;;
24084;SDS011;12268;52.110;5.548;2022-09-20T02:10:10;5.03;;;1.95;;
24084;SDS011;12268;52.110;5.548;2022-09-20T02:16:04;6.78;;;1.73;;
24084;SDS011;12268;52.110;5.548;2022-09-20T02:19:06;9.65;;;2.15;;
24084;SDS011;12268;52.110;5.548;2022-09-20T02:24:30;10.00;;;2.05;;
24084;SDS011;12268;52.110;5.548;2022-09-20T02:27:26;9.63;;;1.75;;
24084;SDS011;12268;52.110;5.548;2022-09-20T02:38:00;4.30;;;1.80;;
24084;SDS011;12268;52.110;5.548;2022-09-20T02:51:20;11.23;;;2.10;;
24084;SDS011;12268;52.110;5.548;2022-09-20T02:56:30;10.45;;;3.38;;
24084;SDS011;12268;52.110;5.548;2022-09-20T03:04:52;7.45;;;2.70;;
24084;SDS011;12268;52.110;5.548;2022-09-20T03:15:51;3.75;;;2.03;;
24084;SDS011;12268;52.110;5.548;2022-09-20T03:18:33;5.78;;;2.30;;
24084;SDS011;12268;52.110;5.548;2022-09-20T03:21:21;7.00;;;2.53;;
24084;SDS011;12268;52.110;5.548;2022-09-20T03:24:07;7.15;;;2.42;;
24084;SDS011;12268;52.110;5.548;2022-09-20T03:27:04;3.83;;;2.10;;
24084;SDS011;12268;52.110;5.548;2022-09-20T03:32:54;5.93;;;1.90;;
24084;SDS011;12268;52.110;5.548;2022-09-20T03:47:12;5.22;;;2.10;;
24084;SDS011;12268;52.110;5.548;2022-09-20T03:58:23;7.50;;;2.30;;
24084;SDS011;12268;52.110;5.548;2022-09-20T04:07:29;8.10;;;2.47;;
24084;SDS011;12268;52.110;5.548;2022-09-20T04:13:11;5.40;;;2.13;;
24084;SDS011;12268;52.110;5.548;2022-09-20T04:15:51;10.82;;;2.63;;
24084;SDS011;12268;52.110;5.548;2022-09-20T04:18:52;8.18;;;2.70;;
24084;SDS011;12268;52.110;5.548;2022-09-20T04:21:25;6.78;;;2.25;;
24084;SDS011;12268;52.110;5.548;2022-09-20T04:24:04;5.07;;;2.20;;
24084;SDS011;12268;52.110;5.548;2022-09-20T04:26:43;6.65;;;2.30;;
24084;SDS011;12268;52.110;5.548;2022-09-20T04:34:58;3.75;;;2.10;;
24084;SDS011;12268;52.110;5.548;2022-09-20T04:38:03;6.88;;;2.35;;
24084;SDS011;12268;52.110;5.548;2022-09-20T04:43:14;4.07;;;2.05;;
24084;SDS011;12268;52.110;5.548;2022-09-20T05:00:07;10.70;;;2.57;;
24084;SDS011;12268;52.110;5.548;2022-09-20T05:05:52;8.52;;;3.13;;
24084;SDS011;12268;52.110;5.548;2022-09-20T05:14:52;7.53;;;2.72;;
24084;SDS011;12268;52.110;5.548;2022-09-20T05:28:37;5.72;;;2.30;;
24084;SDS011;12268;52.110;5.548;2022-09-20T05:31:47;5.80;;;2.35;;
24084;SDS011;12268;52.110;5.548;2022-09-20T05:34:30;5.93;;;2.72;;
24084;SDS011;12268;52.110;5.548;2022-09-20T05:40:21;6.15;;;2.88;;
24084;SDS011;12268;52.110;5.548;2022-09-20T05:43:16;6.40;;;3.00;;
24084;SDS011;12268;52.110;5.548;2022-09-20T05:45:57;7.35;;;3.80;;
24084;SDS011;12268;52.110;5.548;2022-09-20T05:51:29;10.02;;;2.85;;
24084;SDS011;12268;52.110;5.548;2022-09-20T06:05:07;5.28;;;2.42;;
24084;SDS011;12268;52.110;5.548;2022-09-20T06:13:17;5.10;;;2.67;;
24084;SDS011;12268;52.110;5.548;2022-09-20T06:16:06;6.63;;;2.72;;
24084;SDS011;12268;52.110;5.548;2022-09-20T06:18:42;4.53;;;2.30;;
24084;SDS011;12268;52.110;5.548;2022-09-20T06:21:31;8.18;;;3.05;;
24084;SDS011;12268;52.110;5.548;2022-09-20T06:24:20;10.38;;;2.95;;
24084;SDS011;12268;52.110;5.548;2022-09-20T06:26:54;5.80;;;2.75;;
24084;SDS011;12268;52.110;5.548;2022-09-20T06:29:28;9.18;;;3.20;;
24084;SDS011;12268;52.110;5.548;2022-09-20T06:31:56;6.82;;;2.88;;
24084;SDS011;12268;52.110;5.548;2022-09-20T06:34:21;8.20;;;2.80;;
24084;SDS011;12268;52.110;5.548;2022-09-20T06:36:52;4.60;;;2.85;;
24084;SDS011;12268;52.110;5.548;2022-09-20T06:40:05;5.78;;;2.75;;
24084;SDS011;12268;52.110;5.548;2022-09-20T06:42:56;8.52;;;2.88;;
24084;SDS011;12268;52.110;5.548;2022-09-20T06:45:24;7.43;;;3.80;;
24084;SDS011;12268;52.110;5.548;2022-09-20T06:47:49;10.52;;;3.03;;
24084;SDS011;12268;52.110;5.548;2022-09-20T06:50:15;9.77;;;2.50;;
24084;SDS011;12268;52.110;5.548;2022-09-20T06:52:41;5.85;;;2.40;;
24084;SDS011;12268;52.110;5.548;2022-09-20T06:55:10;5.10;;;2.63;;
24084;SDS011;12268;52.110;5.548;2022-09-20T06:57:45;5.10;;;2.70;;
24084;SDS011;12268;52.110;5.548;2022-09-20T07:00:12;5.57;;;2.38;;
24084;SDS011;12268;52.110;5.548;2022-09-20T07:02:39;4.97;;;2.40;;
24084;SDS011;12268;52.110;5.548;2022-09-20T07:05:08;8.90;;;2.92;;
24084;SDS011;12268;52.110;5.548;2022-09-20T07:07:45;10.13;;;3.08;;
24084;SDS011;12268;52.110;5.548;2022-09-20T07:10:11;4.60;;;2.60;;
24084;SDS011;12268;52.110;5.548;2022-09-20T07:12:39;6.82;;;2.95;;
24084;SDS011;12268;52.110;5.548;2022-09-20T07:15:05;10.20;;;3.38;;
24084;SDS011;12268;52.110;5.548;2022-09-20T07:17:31;7.78;;;3.38;;
24084;SDS011;12268;52.110;5.548;2022-09-20T07:19:57;9.23;;;2.97;;
24084;SDS011;12268;52.110;5.548;2022-09-20T07:22:24;6.30;;;2.67;;
24084;SDS011;12268;52.110;5.548;2022-09-20T07:24:50;9.85;;;2.60;;
24084;SDS011;12268;52.110;5.548;2022-09-20T07:27:15;8.57;;;3.05;;
24084;SDS011;12268;52.110;5.548;2022-09-20T07:29:41;7.65;;;2.72;;
24084;SDS011;12268;52.110;5.548;2022-09-20T07:32:07;11.20;;;3.42;;
24084;SDS011;12268;52.110;5.548;2022-09-20T07:34:33;6.45;;;2.60;;
24084;SDS011;12268;52.110;5.548;2022-09-20T07:36:58;7.65;;;2.92;;
24084;SDS011;12268;52.110;5.548;2022-09-20T07:39:24;5.75;;;2.40;;
24084;SDS011;12268;52.110;5.548;2022-09-20T07:41:50;3.75;;;2.28;;
24084;SDS011;12268;52.110;5.548;2022-09-20T07:44:16;6.68;;;2.15;;
24084;SDS011;12268;52.110;5.548;2022-09-20T07:46:53;3.92;;;1.83;;
24084;SDS011;12268;52.110;5.548;2022-09-20T07:49:21;6.85;;;2.58;;
24084;SDS011;12268;52.110;5.548;2022-09-20T07:51:48;8.52;;;2.25;;
24084;SDS011;12268;52.110;5.548;2022-09-20T07:54:14;7.50;;;1.98;;
24084;SDS011;12268;52.110;5.548;2022-09-20T07:56:40;8.63;;;2.00;;
24084;SDS011;12268;52.110;5.548;2022-09-20T07:59:05;8.18;;;2.03;;
24084;SDS011;12268;52.110;5.548;2022-09-20T08:01:31;4.00;;;1.55;;
24084;SDS011;12268;52.110;5.548;2022-09-20T08:03:57;8.80;;;1.70;;
24084;SDS011;12268;52.110;5.548;2022-09-20T08:06:22;3.53;;;1.70;;
24084;SDS011;12268;52.110;5.548;2022-09-20T08:08:48;6.07;;;1.88;;
24084;SDS011;12268;52.110;5.548;2022-09-20T08:11:22;7.95;;;1.73;;
24084;SDS011;12268;52.110;5.548;2022-09-20T08:13:50;8.50;;;1.92;;
24084;SDS011;12268;52.110;5.548;2022-09-20T08:16:17;5.30;;;1.70;;
24084;SDS011;12268;52.110;5.548;2022-09-20T08:18:44;5.38;;;2.00;;
24084;SDS011;12268;52.110;5.548;2022-09-20T08:21:14;6.30;;;1.88;;
24084;SDS011;12268;52.110;5.548;2022-09-20T08:23:41;4.72;;;1.50;;
24084;SDS011;12268;52.110;5.548;2022-09-20T08:26:09;6.13;;;1.63;;
24084;SDS011;12268;52.110;5.548;2022-09-20T08:28:36;3.00;;;1.70;;
24084;SDS011;12268;52.110;5.548;2022-09-20T08:31:03;4.70;;;1.92;;
24084;SDS011;12268;52.110;5.548;2022-09-20T08:33:30;6.15;;;1.50;;
24084;SDS011;12268;52.110;5.548;2022-09-20T08:35:56;5.47;;;1.80;;
24084;SDS011;12268;52.110;5.548;2022-09-20T08:38:22;4.43;;;1.40;;
24084;SDS011;12268;52.110;5.548;2022-09-20T08:40:52;4.70;;;1.75;;
24084;SDS011;12268;52.110;5.548;2022-09-20T08:43:21;9.43;;;2.03;;
24084;SDS011;12268;52.110;5.548;2022-09-20T08:45:53;6.03;;;2.08;;
24084;SDS011;12268;52.110;5.548;2022-09-20T08:48:21;4.57;;;2.30;;
24084;SDS011;12268;52.110;5.548;2022-09-20T08:50:51;5.00;;;2.55;;
24084;SDS011;12268;52.110;5.548;2022-09-20T08:53:16;9.50;;;1.88;;
24084;SDS011;12268;52.110;5.548;2022-09-20T08:55:42;5.07;;;2.10;;
24084;SDS011;12268;52.110;5.548;2022-09-20T08:58:09;4.68;;;2.20;;
24084;SDS011;12268;52.110;5.548;2022-09-20T09:00:36;6.93;;;2.40;;
24084;SDS011;12268;52.110;5.548;2022-09-20T09:03:04;6.97;;;2.38;;
24084;SDS011;12268;52.110;5.548;2022-09-20T09:05:50;5.53;;;1.98;;
24084;SDS011;12268;52.110;5.548;2022-09-20T09:08:23;5.40;;;1.80;;
24084;SDS011;12268;52.110;5.548;2022-09-20T09:10:56;5.90;;;1.77;;
24084;SDS011;12268;52.110;5.548;2022-09-20T09:13:36;9.00;;;2.05;;
24084;SDS011;12268;52.110;5.548;2022-09-20T09:16:22;5.22;;;1.60;;
24084;SDS011;12268;52.110;5.548;2022-09-20T09:18:51;5.85;;;1.50;;
24084;SDS011;12268;52.110;5.548;2022-09-20T09:21:24;3.03;;;1.48;;
24084;SDS011;12268;52.110;5.548;2022-09-20T09:23:52;4.65;;;1.58;;
24084;SDS011;12268;52.110;5.548;2022-09-20T09:26:22;4.10;;;1.50;;
24084;SDS011;12268;52.110;5.548;2022-09-20T09:31:48;4.10;;;1.55;;
24084;SDS011;12268;52.110;5.548;2022-09-20T09:34:21;10.40;;;1.70;;
24084;SDS011;12268;52.110;5.548;2022-09-20T09:36:49;4.95;;;1.73;;
24084;SDS011;12268;52.110;5.548;2022-09-20T09:41:54;4.07;;;1.60;;
24084;SDS011;12268;52.110;5.548;2022-09-20T09:44:23;9.77;;;1.60;;
24084;SDS011;12268;52.110;5.548;2022-09-20T09:46:51;6.03;;;1.85;;
24084;SDS011;12268;52.110;5.548;2022-09-20T09:49:22;5.03;;;2.08;;
24084;SDS011;12268;52.110;5.548;2022-09-20T09:52:00;3.67;;;1.30;;
24084;SDS011;12268;52.110;5.548;2022-09-20T09:54:46;4.20;;;1.60;;
24084;SDS011;12268;52.110;5.548;2022-09-20T10:00:11;4.35;;;1.38;;
24084;SDS011;12268;52.110;5.548;2022-09-20T10:05:10;4.57;;;1.20;;
24084;SDS011;12268;52.110;5.548;2022-09-20T10:07:45;5.38;;;1.20;;
24084;SDS011;12268;52.110;5.548;2022-09-20T10:13:03;3.17;;;1.20;;
24084;SDS011;12268;52.110;5.548;2022-09-20T10:16:36;5.32;;;0.98;;
24084;SDS011;12268;52.110;5.548;2022-09-20T10:19:12;3.28;;;0.93;;
24084;SDS011;12268;52.110;5.548;2022-09-20T10:21:50;4.53;;;1.20;;
24084;SDS011;12268;52.110;5.548;2022-09-20T10:36:25;4.88;;;0.90;;
24084;SDS011;12268;52.110;5.548;2022-09-20T10:39:43;2.72;;;1.02;;
24084;SDS011;12268;52.110;5.548;2022-09-20T10:42:03;3.10;;;0.90;;
24084;SDS011;12268;52.110;5.548;2022-09-20T10:45:02;3.70;;;0.98;;
24084;SDS011;12268;52.110;5.548;2022-09-20T10:47:41;1.30;;;0.73;;
24084;SDS011;12268;52.110;5.548;2022-09-20T10:50:54;1.52;;;0.68;;
24084;SDS011;12268;52.110;5.548;2022-09-20T10:56:42;3.88;;;0.88;;
24084;SDS011;12268;52.110;5.548;2022-09-20T10:59:56;3.60;;;0.98;;
24084;SDS011;12268;52.110;5.548;2022-09-20T11:04:55;5.40;;;0.98;;
24084;SDS011;12268;52.110;5.548;2022-09-20T11:07:49;1.48;;;0.75;;
24084;SDS011;12268;52.110;5.548;2022-09-20T11:10:48;3.00;;;1.10;;
24084;SDS011;12268;52.110;5.548;2022-09-20T11:13:26;4.03;;;0.95;;
24084;SDS011;12268;52.110;5.548;2022-09-20T11:16:11;6.68;;;1.27;;
24084;SDS011;12268;52.110;5.548;2022-09-20T11:18:51;3.22;;;0.95;;
24084;SDS011;12268;52.110;5.548;2022-09-20T11:21:43;3.97;;;0.90;;
24084;SDS011;12268;52.110;5.548;2022-09-20T11:27:04;6.30;;;1.27;;
24084;SDS011;12268;52.110;5.548;2022-09-20T11:29:52;5.82;;;1.00;;
24084;SDS011;12268;52.110;5.548;2022-09-20T11:32:35;3.78;;;0.85;;
24084;SDS011;12268;52.110;5.548;2022-09-20T11:37:36;5.85;;;0.80;;
24084;SDS011;12268;52.110;5.548;2022-09-20T11:40:27;3.88;;;0.88;;
24084;SDS011;12268;52.110;5.548;2022-09-20T11:43:01;3.63;;;1.17;;
24084;SDS011;12268;52.110;5.548;2022-09-20T11:45:30;4.18;;;1.10;;
24084;SDS011;12268;52.110;5.548;2022-09-20T11:48:15;5.43;;;1.00;;
24084;SDS011;12268;52.110;5.548;2022-09-20T11:56:23;3.97;;;1.15;;
24084;SDS011;12268;52.110;5.548;2022-09-20T11:58:54;4.47;;;1.00;;
24084;SDS011;12268;52.110;5.548;2022-09-20T12:01:28;5.38;;;1.20;;
24084;SDS011;12268;52.110;5.548;2022-09-20T12:03:57;4.15;;;1.00;;
24084;SDS011;12268;52.110;5.548;2022-09-20T12:06:30;4.55;;;1.02;;
24084;SDS011;12268;52.110;5.548;2022-09-20T12:08:59;2.53;;;1.23;;
24084;SDS011;12268;52.110;5.548;2022-09-20T12:11:29;2.95;;;1.10;;
24084;SDS011;12268;52.110;5.548;2022-09-20T12:14:19;7.63;;;1.25;;
24084;SDS011;12268;52.110;5.548;2022-09-20T12:16:50;1.40;;;0.80;;
24084;SDS011;12268;52.110;5.548;2022-09-20T12:24:25;6.82;;;1.10;;
24084;SDS011;12268;52.110;5.548;2022-09-20T12:27:01;4.18;;;1.00;;
24084;SDS011;12268;52.110;5.548;2022-09-20T12:29:52;4.13;;;1.08;;
24084;SDS011;12268;52.110;5.548;2022-09-20T12:32:30;6.57;;;1.13;;
24084;SDS011;12268;52.110;5.548;2022-09-20T12:44:54;5.72;;;0.80;;
24084;SDS011;12268;52.110;5.548;2022-09-20T12:46:51;5.90;;;1.00;;
24084;SDS011;12268;52.110;5.548;2022-09-20T12:49:47;3.38;;;1.08;;
24084;SDS011;12268;52.110;5.548;2022-09-20T12:55:31;3.83;;;1.13;;
24084;SDS011;12268;52.110;5.548;2022-09-20T13:00:32;3.67;;;1.00;;
24084;SDS011;12268;52.110;5.548;2022-09-20T13:03:35;7.82;;;0.93;;
24084;SDS011;12268;52.110;5.548;2022-09-20T13:08:40;8.35;;;1.15;;
24084;SDS011;12268;52.110;5.548;2022-09-20T13:11:14;3.58;;;1.02;;
24084;SDS011;12268;52.110;5.548;2022-09-20T13:13:54;2.63;;;0.80;;
24084;SDS011;12268;52.110;5.548;2022-09-20T13:21:46;1.88;;;0.80;;
24084;SDS011;12268;52.110;5.548;2022-09-20T13:24:22;2.63;;;0.80;;
24084;SDS011;12268;52.110;5.548;2022-09-20T13:26:49;3.35;;;0.90;;
24084;SDS011;12268;52.110;5.548;2022-09-20T13:29:21;3.47;;;0.93;;
24084;SDS011;12268;52.110;5.548;2022-09-20T13:31:55;5.38;;;0.82;;
24084;SDS011;12268;52.110;5.548;2022-09-20T13:34:42;5.78;;;1.00;;
24084;SDS011;12268;52.110;5.548;2022-09-20T13:37:16;6.18;;;1.00;;
24084;SDS011;12268;52.110;5.548;2022-09-20T13:39:51;3.83;;;1.00;;
24084;SDS011;12268;52.110;5.548;2022-09-20T13:42:18;3.33;;;1.00;;
24084;SDS011;12268;52.110;5.548;2022-09-20T13:44:44;4.80;;;1.20;;
24084;SDS011;12268;52.110;5.548;2022-09-20T13:47:22;6.65;;;0.90;;
24084;SDS011;12268;52.110;5.548;2022-09-20T13:49:51;6.28;;;1.20;;
24084;SDS011;12268;52.110;5.548;2022-09-20T13:52:26;2.53;;;1.10;;
24084;SDS011;12268;52.110;5.548;2022-09-20T13:54:54;7.72;;;0.93;;
24084;SDS011;12268;52.110;5.548;2022-09-20T13:57:21;3.78;;;0.80;;
24084;SDS011;12268;52.110;5.548;2022-09-20T13:59:50;4.50;;;0.82;;
24084;SDS011;12268;52.110;5.548;2022-09-20T14:02:22;5.05;;;1.00;;
24084;SDS011;12268;52.110;5.548;2022-09-20T14:04:52;7.03;;;1.20;;
24084;SDS011;12268;52.110;5.548;2022-09-20T14:07:19;2.95;;;0.80;;
24084;SDS011;12268;52.110;5.548;2022-09-20T14:09:49;5.97;;;1.00;;
24084;SDS011;12268;52.110;5.548;2022-09-20T14:12:16;3.63;;;1.20;;
24084;SDS011;12268;52.110;5.548;2022-09-20T14:14:42;7.07;;;1.10;;
24084;SDS011;12268;52.110;5.548;2022-09-20T14:17:10;2.30;;;0.80;;
24084;SDS011;12268;52.110;5.548;2022-09-20T14:19:40;3.40;;;0.93;;
24084;SDS011;12268;52.110;5.548;2022-09-20T14:22:06;3.20;;;0.80;;
24084;SDS011;12268;52.110;5.548;2022-09-20T14:24:37;4.78;;;1.00;;
24084;SDS011;12268;52.110;5.548;2022-09-20T14:32:07;1.88;;;0.77;;
24084;SDS011;12268;52.110;5.548;2022-09-20T14:40:24;8.27;;;1.40;;
24084;SDS011;12268;52.110;5.548;2022-09-20T14:45:21;5.50;;;1.20;;
24084;SDS011;12268;52.110;5.548;2022-09-20T14:50:22;9.10;;;1.40;;
24084;SDS011;12268;52.110;5.548;2022-09-20T14:55:35;3.75;;;1.05;;
24084;SDS011;12268;52.110;5.548;2022-09-20T14:58:04;4.53;;;1.27;;
24084;SDS011;12268;52.110;5.548;2022-09-20T15:03:20;4.15;;;0.93;;
24084;SDS011;12268;52.110;5.548;2022-09-20T15:05:50;4.93;;;1.10;;
24084;SDS011;12268;52.110;5.548;2022-09-20T15:08:15;4.15;;;1.23;;
24084;SDS011;12268;52.110;5.548;2022-09-20T15:10:43;3.40;;;1.10;;
24084;SDS011;12268;52.110;5.548;2022-09-20T15:13:09;5.55;;;1.10;;
24084;SDS011;12268;52.110;5.548;2022-09-20T15:15:35;5.43;;;1.50;;
24084;SDS011;12268;52.110;5.548;2022-09-20T15:18:01;4.18;;;0.90;;
24084;SDS011;12268;52.110;5.548;2022-09-20T15:20:27;5.75;;;1.23;;
24084;SDS011;12268;52.110;5.548;2022-09-20T15:22:52;7.00;;;1.20;;
24084;SDS011;12268;52.110;5.548;2022-09-20T15:25:19;4.53;;;1.00;;
24084;SDS011;12268;52.110;5.548;2022-09-20T15:27:45;2.15;;;0.95;;
24084;SDS011;12268;52.110;5.548;2022-09-20T15:30:14;3.58;;;1.17;;
24084;SDS011;12268;52.110;5.548;2022-09-20T15:32:42;6.32;;;1.20;;
24084;SDS011;12268;52.110;5.548;2022-09-20T15:35:08;6.75;;;1.50;;
24084;SDS011;12268;52.110;5.548;2022-09-20T15:37:35;3.40;;;0.88;;
24084;SDS011;12268;52.110;5.548;2022-09-20T15:40:02;1.85;;;0.90;;
24084;SDS011;12268;52.110;5.548;2022-09-20T15:42:29;5.15;;;1.02;;
24084;SDS011;12268;52.110;5.548;2022-09-20T15:44:54;3.28;;;1.00;;
24084;SDS011;12268;52.110;5.548;2022-09-20T15:47:20;3.00;;;1.23;;
24084;SDS011;12268;52.110;5.548;2022-09-20T15:49:48;3.75;;;0.98;;
24084;SDS011;12268;52.110;5.548;2022-09-20T15:52:14;3.15;;;0.90;;
24084;SDS011;12268;52.110;5.548;2022-09-20T15:54:40;4.50;;;0.93;;
24084;SDS011;12268;52.110;5.548;2022-09-20T15:57:06;4.55;;;1.10;;
24084;SDS011;12268;52.110;5.548;2022-09-20T15:59:31;2.13;;;1.00;;
24084;SDS011;12268;52.110;5.548;2022-09-20T16:01:58;4.07;;;0.90;;
24084;SDS011;12268;52.110;5.548;2022-09-20T16:04:24;7.88;;;1.00;;
24084;SDS011;12268;52.110;5.548;2022-09-20T16:06:53;2.83;;;0.70;;
24084;SDS011;12268;52.110;5.548;2022-09-20T16:09:19;7.57;;;1.00;;
24084;SDS011;12268;52.110;5.548;2022-09-20T16:11:45;5.90;;;1.00;;
24084;SDS011;12268;52.110;5.548;2022-09-20T16:14:12;2.50;;;0.90;;
24084;SDS011;12268;52.110;5.548;2022-09-20T16:16:37;4.70;;;0.95;;
24084;SDS011;12268;52.110;5.548;2022-09-20T16:19:03;7.18;;;0.95;;
24084;SDS011;12268;52.110;5.548;2022-09-20T16:21:49;3.15;;;0.88;;
24084;SDS011;12268;52.110;5.548;2022-09-20T16:24:18;1.90;;;0.75;;
24084;SDS011;12268;52.110;5.548;2022-09-20T16:26:46;3.97;;;1.10;;
24084;SDS011;12268;52.110;5.548;2022-09-20T16:29:11;4.50;;;0.88;;
24084;SDS011;12268;52.110;5.548;2022-09-20T16:31:38;6.22;;;1.35;;
